createdAt,value
2019-06-26T00:02:08.037Z,8.73
2019-06-26T00:04:37.831Z,9.13
2019-06-26T00:07:07.764Z,10.45
2019-06-26T00:09:37.607Z,10.05
2019-06-26T00:12:07.564Z,9.05
2019-06-26T00:14:38.835Z,8.25
2019-06-26T00:17:09.480Z,9.68
2019-06-26T00:19:39.458Z,11.90
2019-06-26T00:22:09.411Z,9.43
2019-06-26T00:24:39.313Z,12.05
2019-06-26T00:27:09.104Z,10.43
2019-06-26T00:29:38.914Z,9.15
2019-06-26T00:32:08.803Z,7.80
2019-06-26T00:34:38.810Z,10.90
2019-06-26T00:37:09.077Z,8.78
2019-06-26T00:39:39.032Z,8.28
2019-06-26T00:42:08.896Z,10.38
2019-06-26T00:44:38.810Z,13.18
2019-06-26T00:47:08.724Z,11.40
2019-06-26T00:49:38.621Z,12.13
2019-06-26T00:52:08.547Z,11.20
2019-06-26T00:54:38.440Z,11.80
2019-06-26T00:57:08.418Z,13.95
2019-06-26T00:59:37.221Z,10.80
2019-06-26T01:02:06.781Z,10.05
2019-06-26T01:04:47.175Z,10.00
2019-06-26T01:07:17.040Z,9.10
2019-06-26T01:09:46.987Z,10.48
2019-06-26T01:12:16.775Z,11.83
2019-06-26T01:14:46.699Z,11.63
2019-06-26T01:17:16.610Z,14.03
2019-06-26T01:19:46.526Z,10.63
2019-06-26T01:22:16.446Z,10.88
2019-06-26T01:24:46.389Z,10.15
2019-06-26T01:27:16.307Z,12.85
2019-06-26T01:29:46.228Z,10.53
2019-06-26T01:32:16.138Z,10.23
2019-06-26T01:34:46.043Z,13.95
2019-06-26T01:37:15.841Z,10.10
2019-06-26T01:39:45.639Z,15.60
2019-06-26T01:42:15.556Z,13.22
2019-06-26T01:44:45.473Z,14.18
2019-06-26T01:47:15.280Z,13.60
2019-06-26T01:49:45.211Z,14.63
2019-06-26T01:52:15.154Z,16.77
2019-06-26T01:54:45.092Z,13.90
2019-06-26T01:57:14.995Z,9.60
2019-06-26T01:59:44.807Z,11.65
2019-06-26T02:02:14.670Z,18.75
2019-06-26T02:04:44.621Z,20.05
2019-06-26T02:07:14.532Z,16.12
2019-06-26T02:09:44.473Z,19.35
2019-06-26T02:12:14.380Z,18.82
2019-06-26T02:14:44.197Z,14.95
2019-06-26T02:17:14.016Z,15.68
2019-06-26T02:19:44.001Z,15.78
2019-06-26T02:22:13.778Z,16.30
2019-06-26T02:24:43.685Z,15.78
2019-06-26T02:27:13.582Z,16.15
2019-06-26T02:29:43.869Z,14.07
2019-06-26T02:32:13.924Z,16.30
2019-06-26T02:34:43.810Z,16.80
2019-06-26T02:37:13.882Z,16.67
2019-06-26T02:39:43.804Z,15.65
2019-06-26T02:42:13.734Z,18.65
2019-06-26T02:44:53.447Z,21.35
2019-06-26T02:47:20.026Z,13.72
2019-06-26T02:49:46.741Z,17.60
2019-06-26T02:52:16.629Z,14.33
2019-06-26T02:54:46.545Z,16.32
2019-06-26T02:57:16.436Z,18.85
2019-06-26T02:59:46.333Z,25.40
2019-06-26T03:02:16.125Z,24.63
2019-06-26T03:04:45.946Z,24.80
2019-06-26T03:07:15.859Z,22.30
2019-06-26T03:09:45.744Z,24.55
2019-06-26T03:12:18.460Z,26.95
2019-06-26T03:14:48.398Z,29.80
2019-06-26T03:17:18.321Z,29.57
2019-06-26T03:19:48.171Z,24.67
2019-06-26T03:22:17.979Z,26.77
2019-06-26T03:24:47.931Z,26.73
2019-06-26T03:27:17.858Z,31.77
2019-06-26T03:29:47.772Z,26.48
2019-06-26T03:32:17.613Z,31.82
2019-06-26T03:34:47.597Z,28.98
2019-06-26T03:37:17.408Z,28.17
2019-06-26T03:39:47.281Z,28.98
2019-06-26T03:42:17.195Z,26.75
2019-06-26T03:44:47.109Z,37.70
2019-06-26T03:47:17.023Z,28.57
2019-06-26T03:49:46.991Z,31.80
2019-06-26T03:52:16.933Z,34.10
2019-06-26T03:54:46.772Z,31.00
2019-06-26T03:57:16.687Z,35.83
2019-06-26T03:59:46.614Z,30.37
2019-06-26T04:02:16.490Z,33.13
2019-06-26T04:04:46.441Z,28.60
2019-06-26T04:07:16.234Z,29.18
2019-06-26T04:09:46.157Z,37.48
2019-06-26T04:12:16.069Z,29.67
2019-06-26T04:14:45.983Z,27.15
2019-06-26T04:17:15.901Z,28.25
2019-06-26T04:19:45.812Z,28.80
2019-06-26T04:22:15.727Z,36.80
2019-06-26T04:24:45.624Z,30.72
2019-06-26T04:27:15.560Z,30.43
2019-06-26T04:29:45.516Z,32.93
2019-06-26T04:32:15.432Z,33.38
2019-06-26T04:34:45.547Z,43.58
2019-06-26T04:37:15.479Z,36.53
2019-06-26T04:39:45.335Z,43.00
2019-06-26T04:42:15.133Z,47.43
2019-06-26T04:44:45.041Z,51.73
2019-06-26T04:47:14.997Z,52.83
2019-06-26T04:49:44.859Z,55.17
2019-06-26T04:52:14.810Z,55.92
2019-06-26T04:54:44.742Z,56.70
2019-06-26T04:57:14.636Z,55.50
2019-06-26T04:59:44.712Z,55.43
2019-06-26T05:02:14.775Z,49.85
2019-06-26T05:04:44.654Z,61.85
2019-06-26T05:07:14.558Z,55.88
2019-06-26T05:09:44.562Z,55.35
2019-06-26T05:12:14.349Z,58.00
2019-06-26T05:14:44.375Z,57.05
2019-06-26T05:17:14.376Z,58.85
2019-06-26T05:19:44.486Z,62.98
2019-06-26T05:22:14.404Z,61.02
2019-06-26T05:24:46.452Z,66.10
2019-06-26T05:27:16.010Z,62.53
2019-06-26T05:29:46.109Z,57.85
2019-06-26T05:32:16.054Z,62.85
2019-06-26T05:34:45.930Z,59.60
2019-06-26T05:37:15.833Z,55.00
2019-06-26T05:39:45.749Z,60.45
2019-06-26T05:42:15.576Z,58.70
2019-06-26T05:44:45.371Z,58.92
2019-06-26T05:47:15.187Z,57.95
2019-06-26T05:49:45.097Z,57.45
2019-06-26T05:52:16.697Z,58.35
2019-06-26T05:54:46.613Z,55.95
2019-06-26T05:57:16.498Z,62.10
2019-06-26T05:59:46.398Z,60.30
2019-06-26T06:02:16.312Z,56.75
2019-06-26T06:04:46.229Z,61.45
2019-06-26T06:07:16.144Z,63.92
2019-06-26T06:09:46.201Z,60.73
2019-06-26T06:12:16.118Z,60.03
2019-06-26T06:14:46.040Z,59.00
2019-06-26T06:17:16.245Z,65.25
2019-06-26T06:19:46.123Z,55.90
2019-06-26T06:22:16.148Z,64.35
2019-06-26T06:24:46.334Z,62.17
2019-06-26T06:27:16.506Z,60.23
2019-06-26T06:29:46.349Z,56.23
2019-06-26T06:32:16.213Z,61.50
2019-06-26T06:34:45.986Z,56.50
2019-06-26T06:37:15.763Z,61.25
2019-06-26T06:39:45.592Z,61.70
2019-06-26T06:42:15.471Z,57.98
2019-06-26T06:44:45.790Z,61.77
2019-06-26T06:47:16.000Z,64.97
2019-06-26T06:49:45.955Z,67.00
2019-06-26T06:52:16.848Z,59.30
2019-06-26T06:54:46.995Z,60.10
2019-06-26T06:57:16.858Z,61.70
2019-06-26T06:59:46.764Z,62.78
2019-06-26T07:02:16.690Z,57.85
2019-06-26T07:04:46.594Z,59.75
2019-06-26T07:07:16.497Z,62.65
2019-06-26T07:09:46.363Z,53.25
2019-06-26T07:12:16.246Z,58.02
2019-06-26T07:14:46.153Z,59.98
2019-06-26T07:17:20.776Z,61.75
2019-06-26T07:19:47.659Z,54.00
2019-06-26T07:22:17.558Z,61.68
2019-06-26T07:24:47.461Z,52.40
2019-06-26T07:27:17.343Z,55.88
2019-06-26T07:29:47.168Z,55.88
2019-06-26T07:32:16.947Z,53.23
2019-06-26T07:34:46.754Z,60.38
2019-06-26T07:37:16.577Z,56.75
2019-06-26T07:39:46.457Z,60.95
2019-06-26T07:42:16.399Z,59.10
2019-06-26T07:44:46.214Z,57.93
2019-06-26T07:47:22.947Z,61.85
2019-06-26T07:49:47.638Z,54.98
2019-06-26T07:52:17.740Z,61.37
2019-06-26T07:54:47.752Z,62.75
2019-06-26T07:57:17.738Z,57.65
2019-06-26T07:59:47.742Z,56.40
2019-06-26T08:02:17.702Z,58.08
2019-06-26T08:04:47.623Z,58.28
2019-06-26T08:07:17.529Z,53.45
2019-06-26T08:09:47.427Z,56.30
2019-06-26T08:12:17.524Z,58.17
2019-06-26T08:14:47.397Z,64.42
2019-06-26T08:17:17.391Z,54.00
2019-06-26T08:19:47.278Z,58.08
2019-06-26T08:22:17.095Z,51.88
2019-06-26T08:24:46.902Z,59.10
2019-06-26T08:27:16.704Z,53.13
2019-06-26T08:29:46.710Z,63.48
2019-06-26T08:32:16.636Z,56.58
2019-06-26T08:34:46.559Z,53.60
2019-06-26T08:37:16.394Z,60.75
2019-06-26T08:39:46.179Z,60.28
2019-06-26T08:42:16.017Z,62.05
2019-06-26T08:44:45.806Z,61.88
2019-06-26T08:47:15.605Z,67.45
2019-06-26T08:49:45.568Z,65.45
2019-06-26T08:52:16.260Z,63.80
2019-06-26T08:54:46.052Z,65.83
2019-06-26T08:57:15.947Z,53.55
2019-06-26T08:59:45.846Z,60.73
2019-06-26T09:02:15.760Z,73.12
2019-06-26T09:04:45.670Z,64.50
2019-06-26T09:07:15.481Z,56.90
2019-06-26T09:09:45.374Z,70.95
2019-06-26T09:12:15.294Z,67.37
2019-06-26T09:14:45.089Z,54.77
2019-06-26T09:17:14.974Z,58.05
2019-06-26T09:19:44.963Z,57.48
2019-06-26T09:22:14.874Z,61.98
2019-06-26T09:24:44.761Z,62.55
2019-06-26T09:27:15.118Z,58.48
2019-06-26T09:29:45.244Z,60.25
2019-06-26T09:32:15.292Z,65.12
2019-06-26T09:34:45.183Z,66.77
2019-06-26T09:37:15.071Z,60.75
2019-06-26T09:39:44.860Z,56.80
2019-06-26T09:42:19.363Z,49.10
2019-06-26T09:44:46.867Z,54.60
2019-06-26T09:47:16.648Z,53.87
2019-06-26T09:49:46.446Z,51.13
2019-06-26T09:52:16.374Z,58.87
2019-06-26T09:54:46.168Z,50.55
2019-06-26T09:57:16.075Z,49.25
2019-06-26T09:59:46.022Z,55.20
2019-06-26T10:02:15.935Z,54.35
2019-06-26T10:04:46.984Z,64.65
2019-06-26T10:07:16.967Z,56.15
2019-06-26T10:09:46.880Z,51.48
2019-06-26T10:12:16.760Z,55.58
2019-06-26T10:14:48.212Z,53.92
2019-06-26T10:17:18.079Z,58.20
2019-06-26T10:19:48.044Z,55.38
2019-06-26T10:22:17.859Z,60.23
2019-06-26T10:24:48.405Z,52.98
2019-06-26T10:27:18.268Z,53.45
2019-06-26T10:29:48.148Z,53.25
2019-06-26T10:32:18.022Z,49.70
2019-06-26T10:34:48.087Z,60.48
2019-06-26T10:37:17.900Z,56.15
2019-06-26T10:39:47.811Z,54.05
2019-06-26T10:42:17.614Z,56.35
2019-06-26T10:44:47.535Z,61.95
2019-06-26T10:47:17.499Z,42.45
2019-06-26T10:49:47.417Z,49.67
2019-06-26T10:52:17.200Z,53.38
2019-06-26T10:54:47.091Z,51.37
2019-06-26T10:57:16.980Z,47.43
2019-06-26T10:59:46.918Z,51.08
2019-06-26T11:02:17.183Z,49.70
2019-06-26T11:04:47.194Z,59.88
2019-06-26T11:07:17.172Z,57.95
2019-06-26T11:09:47.092Z,50.17
2019-06-26T11:12:17.064Z,61.13
2019-06-26T11:14:46.957Z,50.73
2019-06-26T11:17:16.762Z,43.00
2019-06-26T11:19:46.565Z,48.45
2019-06-26T11:22:16.364Z,47.40
2019-06-26T11:24:46.195Z,54.75
2019-06-26T11:27:16.064Z,39.65
2019-06-26T11:29:45.978Z,43.23
2019-06-26T11:32:16.219Z,49.10
2019-06-26T11:34:46.381Z,45.88
2019-06-26T11:37:16.331Z,49.42
2019-06-26T11:39:46.316Z,52.13
2019-06-26T11:42:16.391Z,48.00
2019-06-26T11:44:46.309Z,43.25
2019-06-26T11:47:16.257Z,36.08
2019-06-26T11:49:59.358Z,42.35
2019-06-26T11:52:17.997Z,44.18
2019-06-26T11:55:01.420Z,43.48
2019-06-26T11:57:19.569Z,47.55
2019-06-26T11:59:49.546Z,42.65
2019-06-26T12:02:19.716Z,36.38
2019-06-26T12:04:49.541Z,47.25
2019-06-26T12:07:20.858Z,40.75
2019-06-26T12:09:51.105Z,50.33
2019-06-26T12:12:21.107Z,43.30
2019-06-26T12:14:50.947Z,35.52
2019-06-26T12:17:20.790Z,36.73
2019-06-26T12:19:50.566Z,37.65
2019-06-26T12:22:20.410Z,42.78
2019-06-26T12:24:50.202Z,40.78
2019-06-26T12:27:19.984Z,41.37
2019-06-26T12:29:49.776Z,31.50
2019-06-26T12:32:19.651Z,37.63
2019-06-26T12:34:49.445Z,31.17
2019-06-26T12:37:19.201Z,35.00
2019-06-26T12:39:49.034Z,26.77
2019-06-26T12:42:18.955Z,31.42
2019-06-26T12:44:48.861Z,29.92
2019-06-26T12:47:18.764Z,30.05
2019-06-26T12:49:48.625Z,26.40
2019-06-26T12:52:18.457Z,22.20
2019-06-26T12:54:48.276Z,28.10
2019-06-26T12:57:18.482Z,32.55
2019-06-26T12:59:57.450Z,30.52
2019-06-26T13:02:20.063Z,22.67
2019-06-26T13:04:49.884Z,20.80
2019-06-26T13:07:19.712Z,24.90
2019-06-26T13:09:49.506Z,18.73
2019-06-26T13:12:19.300Z,23.05
2019-06-26T13:14:49.125Z,20.72
2019-06-26T13:17:18.940Z,21.52
2019-06-26T13:19:48.837Z,19.00
2019-06-26T13:22:18.980Z,17.73
2019-06-26T13:24:48.950Z,17.98
2019-06-26T13:27:18.863Z,13.03
2019-06-26T13:29:48.664Z,20.85
2019-06-26T13:32:18.492Z,20.70
2019-06-26T13:34:48.268Z,17.87
2019-06-26T13:37:18.063Z,14.78
2019-06-26T13:39:47.861Z,14.60
2019-06-26T13:42:17.674Z,20.70
2019-06-26T13:44:47.515Z,16.40
2019-06-26T13:47:17.511Z,21.15
2019-06-26T13:49:47.373Z,14.95
2019-06-26T13:52:17.281Z,15.43
2019-06-26T13:54:47.134Z,14.70
2019-06-26T13:57:16.943Z,14.95
2019-06-26T13:59:46.783Z,16.00
2019-06-26T14:02:19.736Z,14.47
2019-06-26T14:04:48.061Z,12.07
2019-06-26T14:07:17.899Z,11.45
2019-06-26T14:09:47.697Z,10.15
2019-06-26T14:12:19.293Z,12.88
2019-06-26T14:14:57.360Z,11.12
2019-06-26T14:17:20.776Z,11.35
2019-06-26T14:19:50.590Z,24.75
2019-06-26T14:22:20.427Z,8.50
2019-06-26T14:24:53.212Z,9.63
2019-06-26T14:27:21.823Z,11.78
2019-06-26T14:29:51.874Z,6.15
2019-06-26T14:32:21.656Z,12.40
2019-06-26T14:34:51.478Z,10.20
2019-06-26T14:37:21.534Z,12.88
2019-06-26T14:39:51.414Z,10.72
2019-06-26T14:42:21.224Z,13.05
2019-06-26T14:44:52.817Z,10.80
2019-06-26T14:47:22.712Z,9.75
2019-06-26T14:49:52.521Z,10.00
2019-06-26T14:52:22.324Z,9.28
2019-06-26T14:54:52.162Z,9.50
2019-06-26T14:57:23.832Z,7.37
2019-06-26T14:59:53.466Z,8.43
2019-06-26T15:02:23.264Z,13.22
2019-06-26T15:04:53.055Z,11.70
2019-06-26T15:07:22.862Z,6.55
2019-06-26T15:09:52.726Z,12.18
2019-06-26T15:12:22.589Z,15.38
2019-06-26T15:14:52.403Z,7.00
2019-06-26T15:17:22.222Z,12.47
2019-06-26T15:19:52.035Z,10.25
2019-06-26T15:22:21.889Z,10.03
2019-06-26T15:24:51.704Z,11.80
2019-06-26T15:27:21.476Z,8.85
2019-06-26T15:29:51.411Z,8.20
2019-06-26T15:32:21.195Z,12.47
2019-06-26T15:34:51.007Z,10.58
2019-06-26T15:37:20.798Z,9.35
2019-06-26T15:39:50.612Z,19.25
2019-06-26T15:42:20.415Z,9.33
2019-06-26T15:44:50.239Z,11.25
2019-06-26T15:47:20.063Z,8.48
2019-06-26T15:49:49.949Z,10.72
2019-06-26T15:52:20.101Z,9.93
2019-06-26T15:54:49.948Z,10.53
2019-06-26T15:57:19.818Z,9.65
2019-06-26T15:59:49.652Z,9.35
2019-06-26T16:02:19.495Z,13.38
2019-06-26T16:04:50.410Z,8.88
2019-06-26T16:07:20.267Z,11.70
2019-06-26T16:09:50.069Z,11.57
2019-06-26T16:12:19.882Z,15.93
2019-06-26T16:14:49.673Z,14.33
2019-06-26T16:17:21.142Z,10.48
2019-06-26T16:19:50.945Z,10.50
2019-06-26T16:22:31.627Z,13.38
2019-06-26T16:24:52.439Z,10.25
2019-06-26T16:27:22.199Z,12.53
2019-06-26T16:29:52.034Z,9.75
2019-06-26T16:32:21.834Z,15.40
2019-06-26T16:34:51.600Z,11.55
2019-06-26T16:37:21.418Z,10.58
2019-06-26T16:39:51.288Z,9.88
2019-06-26T16:42:21.089Z,11.95
2019-06-26T16:44:50.965Z,10.48
2019-06-26T16:47:20.786Z,14.80
2019-06-26T16:49:50.880Z,9.13
2019-06-26T16:52:20.702Z,8.83
2019-06-26T16:54:50.518Z,7.92
2019-06-26T16:57:20.705Z,9.78
2019-06-26T16:59:50.552Z,9.48
2019-06-26T17:02:20.636Z,11.30
2019-06-26T17:04:50.589Z,9.55
2019-06-26T17:07:20.417Z,8.83
2019-06-26T17:09:50.191Z,8.78
2019-06-26T17:12:20.048Z,9.08
2019-06-26T17:14:49.838Z,10.53
2019-06-26T17:17:19.663Z,15.08
2019-06-26T17:19:49.458Z,13.78
2019-06-26T17:22:19.247Z,7.33
2019-06-26T17:24:49.068Z,10.18
2019-06-26T17:27:18.891Z,12.75
2019-06-26T17:29:51.888Z,5.90
2019-06-26T17:32:21.785Z,6.95
2019-06-26T17:34:51.567Z,7.67
2019-06-26T17:37:24.235Z,7.58
2019-06-26T17:39:54.087Z,6.03
2019-06-26T17:42:23.919Z,6.33
2019-06-26T17:44:53.698Z,8.48
2019-06-26T17:47:23.503Z,7.47
2019-06-26T17:49:53.309Z,14.00
2019-06-26T17:52:23.177Z,9.35
2019-06-26T17:54:52.984Z,6.40
2019-06-26T17:57:22.805Z,9.18
2019-06-26T17:59:52.627Z,10.70
2019-06-26T18:02:22.489Z,10.32
2019-06-26T18:04:52.307Z,7.45
2019-06-26T18:07:22.107Z,5.62
2019-06-26T18:09:51.904Z,7.95
2019-06-26T18:12:21.748Z,6.87
2019-06-26T18:14:51.556Z,7.60
2019-06-26T18:17:22.712Z,4.70
2019-06-26T18:19:53.879Z,9.40
2019-06-26T18:22:23.773Z,5.65
2019-06-26T18:24:53.850Z,11.08
2019-06-26T18:27:23.646Z,5.55
2019-06-26T18:29:53.432Z,8.88
2019-06-26T18:32:23.215Z,7.72
2019-06-26T18:34:53.005Z,10.82
2019-06-26T18:37:22.837Z,3.98
2019-06-26T18:39:52.633Z,8.08
2019-06-26T18:42:22.410Z,3.62
2019-06-26T18:44:52.271Z,4.97
2019-06-26T18:47:22.144Z,6.28
2019-06-26T18:49:51.942Z,6.42
2019-06-26T18:52:21.757Z,3.52
2019-06-26T18:54:51.549Z,3.62
2019-06-26T18:57:21.311Z,4.55
2019-06-26T18:59:51.115Z,5.87
2019-06-26T19:02:20.917Z,3.42
2019-06-26T19:04:54.016Z,8.50
2019-06-26T19:07:22.201Z,3.60
2019-06-26T19:09:51.977Z,5.65
2019-06-26T19:12:21.952Z,4.15
2019-06-26T19:14:51.755Z,3.62
2019-06-26T19:17:21.526Z,4.55
2019-06-26T19:19:51.365Z,4.58
2019-06-26T19:22:21.151Z,4.20
2019-06-26T19:24:50.941Z,2.40
2019-06-26T19:27:20.747Z,2.75
2019-06-26T19:29:50.558Z,3.25
2019-06-26T19:32:20.346Z,2.25
2019-06-26T19:34:50.165Z,3.85
2019-06-26T19:37:19.959Z,2.55
2019-06-26T19:39:49.737Z,5.45
2019-06-26T19:42:19.583Z,3.20
2019-06-26T19:44:49.367Z,4.20
2019-06-26T19:47:19.168Z,9.53
2019-06-26T19:49:48.984Z,2.58
2019-06-26T19:52:18.801Z,8.15
2019-06-26T19:54:48.638Z,2.42
2019-06-26T19:57:18.463Z,2.98
2019-06-26T19:59:48.262Z,2.08
2019-06-26T20:02:18.040Z,5.97
2019-06-26T20:04:48.469Z,3.00
2019-06-26T20:07:18.445Z,4.67
2019-06-26T20:09:48.201Z,7.30
2019-06-26T20:12:17.970Z,4.28
2019-06-26T20:14:47.776Z,3.37
2019-06-26T20:17:17.598Z,6.03
2019-06-26T20:19:47.418Z,8.28
2019-06-26T20:22:17.223Z,5.72
2019-06-26T20:24:47.085Z,4.92
2019-06-26T20:27:16.887Z,4.85
2019-06-26T20:29:46.678Z,6.55
2019-06-26T20:32:16.491Z,4.08
2019-06-26T20:34:46.266Z,7.72
2019-06-26T20:37:16.283Z,2.30
2019-06-26T20:39:46.140Z,2.60
2019-06-26T20:42:16.003Z,6.08
2019-06-26T20:44:45.811Z,4.75
2019-06-26T20:47:15.621Z,7.85
2019-06-26T20:49:53.280Z,3.20
2019-06-26T20:52:16.891Z,7.53
2019-06-26T20:55:00.042Z,5.78
2019-06-26T20:57:18.240Z,3.58
2019-06-26T20:59:48.155Z,7.03
2019-06-26T21:02:18.038Z,6.60
2019-06-26T21:04:47.901Z,6.53
2019-06-26T21:07:17.762Z,6.90
2019-06-26T21:09:47.549Z,4.75
2019-06-26T21:12:17.433Z,8.45
2019-06-26T21:14:47.313Z,5.92
2019-06-26T21:17:17.215Z,12.68
2019-06-26T21:19:47.241Z,3.72
2019-06-26T21:22:17.406Z,15.93
2019-06-26T21:24:47.261Z,9.80
2019-06-26T21:27:18.183Z,4.83
2019-06-26T21:29:48.394Z,6.72
2019-06-26T21:32:18.164Z,3.95
2019-06-26T21:34:47.949Z,3.65
2019-06-26T21:37:17.735Z,7.50
2019-06-26T21:39:47.527Z,5.60
2019-06-26T21:42:17.425Z,7.42
2019-06-26T21:44:47.340Z,6.85
2019-06-26T21:47:17.120Z,7.90
2019-06-26T21:49:47.023Z,6.17
2019-06-26T21:52:16.916Z,5.92
2019-06-26T21:54:46.821Z,5.55
2019-06-26T21:57:16.631Z,3.62
2019-06-26T21:59:46.412Z,9.10
2019-06-26T22:02:16.461Z,8.85
2019-06-26T22:04:46.409Z,8.53
2019-06-26T22:07:16.324Z,6.87
2019-06-26T22:09:46.143Z,8.85
2019-06-26T22:12:16.014Z,8.65
2019-06-26T22:14:45.826Z,7.85
2019-06-26T22:17:15.602Z,5.25
2019-06-26T22:19:45.498Z,10.38
2019-06-26T22:22:15.400Z,6.30
2019-06-26T22:24:45.211Z,5.97
2019-06-26T22:27:15.376Z,6.37
2019-06-26T22:29:45.274Z,5.42
2019-06-26T22:32:15.211Z,12.25
2019-06-26T22:37:16.671Z,4.70
2019-06-26T22:39:46.542Z,5.28
2019-06-26T22:42:16.450Z,4.47
2019-06-26T22:44:46.224Z,6.58
2019-06-26T22:47:16.128Z,7.30
2019-06-26T22:49:46.101Z,8.25
2019-06-26T22:52:15.907Z,10.38
2019-06-26T22:54:45.707Z,10.45
2019-06-26T22:57:15.498Z,10.72
2019-06-26T22:59:45.624Z,9.88
2019-06-26T23:02:15.426Z,4.40
2019-06-26T23:04:45.306Z,8.55
2019-06-26T23:07:15.201Z,9.68
2019-06-26T23:09:45.073Z,4.87
2019-06-26T23:12:14.862Z,8.40
2019-06-26T23:14:44.746Z,6.53
2019-06-26T23:17:14.542Z,8.53
2019-06-26T23:19:44.341Z,9.85
2019-06-26T23:22:14.114Z,4.83
2019-06-26T23:24:44.020Z,7.03
2019-06-26T23:27:13.909Z,6.17
2019-06-26T23:29:43.806Z,8.55
2019-06-26T23:32:13.591Z,7.53
2019-06-26T23:34:43.380Z,6.65
2019-06-26T23:37:13.170Z,7.00
2019-06-26T23:39:43.049Z,6.45
2019-06-26T23:42:12.836Z,7.92
2019-06-26T23:44:42.710Z,6.20
2019-06-26T23:47:12.607Z,5.08
2019-06-26T23:49:42.487Z,8.85
2019-06-26T23:52:12.271Z,5.10
2019-06-26T23:54:42.146Z,6.40
2019-06-26T23:57:12.039Z,6.90
2019-06-26T23:59:41.828Z,4.20
